createdAt,value
2019-02-08T00:00:43.734Z,929.11
2019-02-08T00:01:43.714Z,929.13
2019-02-08T00:02:43.706Z,929.15
2019-02-08T00:03:43.698Z,929.17
2019-02-08T00:04:43.785Z,929.15
2019-02-08T00:05:43.671Z,929.18
2019-02-08T00:06:43.662Z,929.15
2019-02-08T00:07:43.656Z,929.18
2019-02-08T00:08:43.640Z,929.19
2019-02-08T00:09:43.636Z,929.19
2019-02-08T00:10:43.631Z,929.17
2019-02-08T00:11:43.615Z,929.21
2019-02-08T00:12:43.601Z,929.21
2019-02-08T00:13:43.605Z,929.24
2019-02-08T00:14:43.582Z,929.27
2019-02-08T00:15:43.576Z,929.31
2019-02-08T00:16:43.566Z,929.34
2019-02-08T00:17:43.553Z,929.34
2019-02-08T00:18:43.536Z,929.37
2019-02-08T00:19:43.529Z,929.34
2019-02-08T00:20:43.519Z,929.40
2019-02-08T00:21:43.504Z,929.41
2019-02-08T00:22:43.498Z,929.36
2019-02-08T00:23:43.483Z,929.37
2019-02-08T00:24:43.481Z,929.44
2019-02-08T00:25:43.462Z,929.42
2019-02-08T00:26:43.449Z,929.40
2019-02-08T00:27:43.474Z,929.41
2019-02-08T00:28:43.432Z,929.40
2019-02-08T00:29:43.418Z,929.39
2019-02-08T00:30:43.407Z,929.39
2019-02-08T00:31:43.397Z,929.40
2019-02-08T00:32:43.389Z,929.39
2019-02-08T00:33:43.375Z,929.36
2019-02-08T00:34:43.365Z,929.41
2019-02-08T00:35:43.352Z,929.37
2019-02-08T00:36:43.354Z,929.38
2019-02-08T00:37:43.339Z,929.39
2019-02-08T00:38:43.329Z,929.42
2019-02-08T00:39:43.309Z,929.43
2019-02-08T00:40:43.314Z,929.40
2019-02-08T00:41:43.290Z,929.44
2019-02-08T00:42:43.380Z,929.48
2019-02-08T00:43:43.267Z,929.43
2019-02-08T00:44:43.257Z,929.49
2019-02-08T00:45:43.255Z,929.46
2019-02-08T00:46:43.242Z,929.45
2019-02-08T00:47:43.234Z,929.43
2019-02-08T00:48:43.216Z,929.44
2019-02-08T00:49:43.206Z,929.44
2019-02-08T00:50:43.194Z,929.45
2019-02-08T00:51:43.186Z,929.45
2019-02-08T00:52:43.177Z,929.42
2019-02-08T00:53:43.161Z,929.43
2019-02-08T00:54:43.154Z,929.50
2019-02-08T00:55:43.143Z,929.50
2019-02-08T00:56:43.131Z,929.44
2019-02-08T00:57:43.135Z,929.49
2019-02-08T00:58:43.109Z,929.51
2019-02-08T00:59:43.102Z,929.51
2019-02-08T01:00:43.088Z,929.47
2019-02-08T01:01:43.099Z,929.49
2019-02-08T01:02:43.076Z,929.44
2019-02-08T01:03:43.063Z,929.45
2019-02-08T01:04:43.050Z,929.52
2019-02-08T01:05:43.044Z,929.56
2019-02-08T01:06:43.022Z,929.54
2019-02-08T01:07:43.014Z,929.57
2019-02-08T01:08:43.109Z,929.57
2019-02-08T01:09:42.994Z,929.62
2019-02-08T01:10:42.981Z,929.61
2019-02-08T01:11:42.974Z,929.66
2019-02-08T01:12:42.961Z,929.67
2019-02-08T01:13:42.952Z,929.68
2019-02-08T01:14:42.944Z,929.66
2019-02-08T01:15:42.931Z,929.64
2019-02-08T01:16:42.917Z,929.60
2019-02-08T01:17:42.904Z,929.62
2019-02-08T01:18:42.895Z,929.63
2019-02-08T01:19:42.889Z,929.59
2019-02-08T01:20:42.876Z,929.65
2019-02-08T01:21:42.862Z,929.63
2019-02-08T01:22:42.858Z,929.62
2019-02-08T01:23:42.844Z,929.60
2019-02-08T01:24:42.834Z,929.62
2019-02-08T01:25:42.821Z,929.61
2019-02-08T01:26:42.812Z,929.61
2019-02-08T01:27:42.797Z,929.61
2019-02-08T01:28:42.788Z,929.59
2019-02-08T01:29:42.777Z,929.61
2019-02-08T01:30:42.768Z,929.67
2019-02-08T01:31:42.758Z,929.69
2019-02-08T01:32:42.745Z,929.65
2019-02-08T01:33:42.743Z,929.63
2019-02-08T01:34:42.727Z,929.63
2019-02-08T01:35:42.714Z,929.62
2019-02-08T01:36:42.709Z,929.67
2019-02-08T01:37:42.699Z,929.66
2019-02-08T01:38:42.684Z,929.67
2019-02-08T01:39:42.677Z,929.64
2019-02-08T01:40:42.664Z,929.66
2019-02-08T01:41:42.651Z,929.69
2019-02-08T01:42:42.643Z,929.67
2019-02-08T01:43:42.783Z,929.72
2019-02-08T01:44:42.620Z,929.70
2019-02-08T01:45:42.606Z,929.72
2019-02-08T01:46:42.604Z,929.69
2019-02-08T01:47:42.589Z,929.69
2019-02-08T01:48:42.576Z,929.70
2019-02-08T01:49:42.572Z,929.69
2019-02-08T01:50:42.555Z,929.71
2019-02-08T01:51:42.544Z,929.72
2019-02-08T01:52:42.532Z,929.75
2019-02-08T01:53:48.607Z,929.78
2019-02-08T01:54:43.616Z,929.76
2019-02-08T01:55:42.501Z,929.79
2019-02-08T01:56:42.493Z,929.77
2019-02-08T01:57:42.482Z,929.77
2019-02-08T01:58:42.468Z,929.75
2019-02-08T01:59:42.459Z,929.75
2019-02-08T02:00:42.449Z,929.77
2019-02-08T02:01:42.438Z,929.75
2019-02-08T02:02:42.439Z,929.74
2019-02-08T02:03:42.417Z,929.73
2019-02-08T02:04:42.405Z,929.74
2019-02-08T02:05:42.399Z,929.74
2019-02-08T02:06:42.389Z,929.77
2019-02-08T02:07:42.377Z,929.80
2019-02-08T02:08:42.368Z,929.81
2019-02-08T02:09:42.354Z,929.79
2019-02-08T02:10:42.350Z,929.79
2019-02-08T02:11:42.331Z,929.80
2019-02-08T02:12:42.320Z,929.83
2019-02-08T02:13:42.315Z,929.79
2019-02-08T02:14:42.301Z,929.83
2019-02-08T02:15:42.299Z,929.83
2019-02-08T02:16:42.281Z,929.83
2019-02-08T02:17:42.272Z,929.87
2019-02-08T02:18:42.257Z,929.90
2019-02-08T02:19:42.248Z,929.92
2019-02-08T02:20:42.236Z,929.92
2019-02-08T02:21:42.232Z,929.91
2019-02-08T02:22:42.215Z,929.91
2019-02-08T02:23:42.204Z,929.93
2019-02-08T02:24:42.196Z,929.95
2019-02-08T02:25:42.184Z,929.93
2019-02-08T02:26:42.173Z,929.95
2019-02-08T02:27:42.166Z,929.96
2019-02-08T02:28:42.154Z,929.98
2019-02-08T02:29:42.143Z,929.95
2019-02-08T02:30:42.134Z,930.00
2019-02-08T02:31:42.125Z,929.99
2019-02-08T02:32:42.111Z,929.98
2019-02-08T02:33:42.104Z,930.02
2019-02-08T02:34:42.135Z,930.02
2019-02-08T02:35:42.076Z,930.05
2019-02-08T02:36:42.075Z,930.03
2019-02-08T02:37:42.059Z,930.04
2019-02-08T02:38:42.047Z,930.08
2019-02-08T02:39:42.038Z,930.08
2019-02-08T02:40:42.032Z,930.09
2019-02-08T02:41:42.015Z,930.11
2019-02-08T02:42:42.004Z,930.13
2019-02-08T02:43:42.006Z,930.17
2019-02-08T02:44:42.235Z,930.09
2019-02-08T02:45:41.975Z,930.15
2019-02-08T02:46:41.964Z,930.13
2019-02-08T02:47:41.954Z,930.15
2019-02-08T02:48:41.946Z,930.21
2019-02-08T02:49:41.934Z,930.23
2019-02-08T02:50:41.931Z,930.22
2019-02-08T02:51:41.910Z,930.23
2019-02-08T02:52:41.902Z,930.27
2019-02-08T02:53:41.894Z,930.26
2019-02-08T02:54:41.882Z,930.22
2019-02-08T02:55:41.873Z,930.26
2019-02-08T02:56:41.861Z,930.29
2019-02-08T02:57:41.846Z,930.30
2019-02-08T02:58:41.838Z,930.29
2019-02-08T02:59:41.829Z,930.31
2019-02-08T03:00:41.818Z,930.28
2019-02-08T03:01:41.811Z,930.35
2019-02-08T03:02:41.792Z,930.37
2019-02-08T03:03:41.785Z,930.38
2019-02-08T03:04:41.771Z,930.38
2019-02-08T03:05:41.763Z,930.38
2019-02-08T03:06:41.753Z,930.39
2019-02-08T03:07:41.742Z,930.43
2019-02-08T03:08:41.735Z,930.45
2019-02-08T03:09:41.718Z,930.51
2019-02-08T03:10:41.711Z,930.44
2019-02-08T03:11:41.698Z,930.43
2019-02-08T03:12:41.690Z,930.44
2019-02-08T03:13:41.677Z,930.51
2019-02-08T03:14:41.668Z,930.52
2019-02-08T03:15:41.657Z,930.56
2019-02-08T03:16:41.644Z,930.53
2019-02-08T03:17:41.633Z,930.54
2019-02-08T03:18:41.629Z,930.55
2019-02-08T03:19:41.613Z,930.57
2019-02-08T03:20:41.599Z,930.60
2019-02-08T03:21:41.589Z,930.52
2019-02-08T03:22:41.580Z,930.58
2019-02-08T03:23:41.575Z,930.52
2019-02-08T03:24:41.562Z,930.55
2019-02-08T03:25:41.550Z,930.62
2019-02-08T03:26:41.538Z,930.60
2019-02-08T03:27:41.529Z,930.59
2019-02-08T03:28:41.518Z,930.67
2019-02-08T03:29:41.507Z,930.68
2019-02-08T03:30:41.521Z,930.71
2019-02-08T03:31:41.488Z,930.68
2019-02-08T03:32:41.476Z,930.63
2019-02-08T03:33:41.464Z,930.64
2019-02-08T03:34:41.458Z,930.61
2019-02-08T03:35:41.446Z,930.66
2019-02-08T03:36:41.435Z,930.65
2019-02-08T03:37:41.426Z,930.68
2019-02-08T03:38:41.435Z,930.69
2019-02-08T03:39:41.412Z,930.68
2019-02-08T03:40:41.393Z,930.71
2019-02-08T03:41:41.390Z,930.76
2019-02-08T03:42:41.375Z,930.74
2019-02-08T03:43:41.369Z,930.71
2019-02-08T03:44:41.346Z,930.66
2019-02-08T03:45:41.607Z,930.70
2019-02-08T03:46:41.339Z,930.68
2019-02-08T03:47:41.319Z,930.72
2019-02-08T03:48:41.309Z,930.76
2019-02-08T03:49:41.299Z,930.75
2019-02-08T03:50:41.295Z,930.79
2019-02-08T03:51:41.277Z,930.75
2019-02-08T03:52:41.265Z,930.75
2019-02-08T03:53:41.252Z,930.74
2019-02-08T03:54:41.252Z,930.81
2019-02-08T03:55:41.232Z,930.78
2019-02-08T03:56:41.222Z,930.79
2019-02-08T03:57:41.209Z,930.77
2019-02-08T03:58:41.201Z,930.81
2019-02-08T03:59:41.188Z,930.86
2019-02-08T04:00:41.176Z,930.84
2019-02-08T04:01:41.168Z,930.82
2019-02-08T04:02:41.159Z,930.83
2019-02-08T04:03:41.165Z,930.86
2019-02-08T04:04:41.137Z,930.82
2019-02-08T04:05:41.122Z,930.80
2019-02-08T04:06:41.111Z,930.78
2019-02-08T04:07:41.104Z,930.81
2019-02-08T04:08:41.087Z,930.83
2019-02-08T04:09:41.076Z,930.82
2019-02-08T04:10:41.065Z,930.85
2019-02-08T04:11:41.057Z,930.91
2019-02-08T04:12:41.051Z,930.89
2019-02-08T04:13:41.033Z,930.94
2019-02-08T04:14:41.021Z,930.90
2019-02-08T04:15:41.022Z,930.91
2019-02-08T04:16:41.006Z,930.96
2019-02-08T04:17:40.990Z,930.98
2019-02-08T04:18:42.511Z,931.00
2019-02-08T04:19:40.967Z,930.99
2019-02-08T04:20:40.956Z,931.02
2019-02-08T04:21:40.946Z,931.02
2019-02-08T04:22:40.938Z,931.02
2019-02-08T04:23:40.924Z,931.02
2019-02-08T04:24:40.914Z,931.06
2019-02-08T04:25:40.903Z,931.07
2019-02-08T04:26:40.895Z,931.08
2019-02-08T04:27:40.882Z,931.11
2019-02-08T04:28:40.872Z,931.14
2019-02-08T04:29:40.861Z,931.14
2019-02-08T04:30:40.854Z,931.13
2019-02-08T04:31:42.474Z,931.12
2019-02-08T04:32:40.838Z,931.14
2019-02-08T04:33:40.816Z,931.17
2019-02-08T04:34:40.811Z,931.13
2019-02-08T04:35:40.797Z,931.14
2019-02-08T04:36:40.785Z,931.13
2019-02-08T04:37:40.773Z,931.17
2019-02-08T04:38:40.766Z,931.13
2019-02-08T04:39:40.757Z,931.09
2019-02-08T04:40:40.743Z,931.16
2019-02-08T04:41:40.728Z,931.16
2019-02-08T04:42:40.718Z,931.07
2019-02-08T04:43:40.713Z,931.06
2019-02-08T04:44:40.781Z,931.09
2019-02-08T04:45:40.687Z,931.10
2019-02-08T04:46:41.031Z,931.08
2019-02-08T04:47:40.671Z,931.03
2019-02-08T04:48:40.663Z,931.03
2019-02-08T04:49:40.646Z,931.10
2019-02-08T04:50:40.632Z,931.07
2019-02-08T04:51:40.747Z,931.05
2019-02-08T04:52:40.716Z,931.06
2019-02-08T04:53:40.706Z,931.11
2019-02-08T04:54:40.697Z,931.14
2019-02-08T04:55:40.584Z,931.14
2019-02-08T04:56:40.565Z,931.17
2019-02-08T04:57:40.563Z,931.10
2019-02-08T04:58:40.547Z,931.10
2019-02-08T04:59:40.536Z,931.09
2019-02-08T05:00:40.529Z,931.03
2019-02-08T05:01:40.522Z,931.02
2019-02-08T05:02:40.506Z,931.05
2019-02-08T05:03:40.496Z,930.99
2019-02-08T05:04:40.486Z,931.05
2019-02-08T05:05:40.473Z,931.00
2019-02-08T05:06:40.463Z,931.03
2019-02-08T05:07:40.453Z,931.00
2019-02-08T05:08:40.439Z,931.03
2019-02-08T05:09:40.428Z,931.02
2019-02-08T05:10:40.419Z,931.09
2019-02-08T05:11:40.410Z,931.05
2019-02-08T05:12:40.396Z,931.09
2019-02-08T05:13:40.386Z,931.10
2019-02-08T05:14:40.376Z,931.09
2019-02-08T05:15:40.367Z,931.08
2019-02-08T05:16:40.357Z,931.05
2019-02-08T05:17:40.345Z,931.07
2019-02-08T05:18:40.337Z,931.04
2019-02-08T05:19:40.321Z,931.06
2019-02-08T05:20:40.315Z,931.12
2019-02-08T05:21:40.304Z,931.12
2019-02-08T05:22:40.301Z,931.13
2019-02-08T05:23:40.285Z,931.11
2019-02-08T05:24:45.859Z,931.14
2019-02-08T05:25:40.270Z,931.12
2019-02-08T05:26:40.253Z,931.08
2019-02-08T05:27:40.247Z,931.09
2019-02-08T05:28:40.234Z,931.08
2019-02-08T05:29:40.220Z,931.06
2019-02-08T05:30:40.212Z,931.06
2019-02-08T05:31:40.199Z,931.10
2019-02-08T05:32:40.192Z,931.08
2019-02-08T05:33:40.180Z,931.09
2019-02-08T05:34:40.170Z,931.13
2019-02-08T05:35:40.167Z,931.08
2019-02-08T05:36:40.150Z,931.11
2019-02-08T05:37:40.146Z,931.13
2019-02-08T05:38:40.127Z,931.12
2019-02-08T05:39:40.115Z,931.10
2019-02-08T05:40:40.106Z,931.14
2019-02-08T05:41:40.099Z,931.14
2019-02-08T05:42:40.085Z,931.13
2019-02-08T05:43:40.076Z,931.12
2019-02-08T05:44:40.067Z,931.12
2019-02-08T05:45:40.055Z,931.07
2019-02-08T05:46:40.049Z,931.13
2019-02-08T05:47:40.284Z,931.14
2019-02-08T05:48:40.027Z,931.13
2019-02-08T05:49:40.018Z,931.11
2019-02-08T05:50:40.004Z,931.10
2019-02-08T05:51:39.994Z,931.10
2019-02-08T05:52:39.984Z,931.12
2019-02-08T05:53:39.974Z,931.12
2019-02-08T05:54:39.963Z,931.15
2019-02-08T05:55:39.951Z,931.15
2019-02-08T05:56:39.942Z,931.13
2019-02-08T05:57:39.932Z,931.12
2019-02-08T05:58:40.123Z,931.09
2019-02-08T05:59:39.912Z,931.12
2019-02-08T06:00:39.903Z,931.04
2019-02-08T06:01:39.893Z,931.06
2019-02-08T06:02:39.883Z,931.01
2019-02-08T06:03:39.874Z,930.99
2019-02-08T06:04:39.960Z,931.10
2019-02-08T06:05:39.856Z,931.09
2019-02-08T06:06:39.838Z,931.11
2019-02-08T06:07:39.828Z,931.06
2019-02-08T06:08:39.834Z,931.08
2019-02-08T06:09:39.808Z,931.05
2019-02-08T06:10:39.793Z,931.05
2019-02-08T06:11:39.785Z,931.04
2019-02-08T06:12:39.774Z,931.04
2019-02-08T06:13:39.765Z,931.02
2019-02-08T06:14:39.754Z,931.02
2019-02-08T06:15:39.749Z,931.03
2019-02-08T06:16:39.734Z,931.03
2019-02-08T06:17:39.719Z,931.03
2019-02-08T06:18:39.715Z,931.03
2019-02-08T06:19:39.701Z,931.03
2019-02-08T06:20:39.688Z,931.05
2019-02-08T06:21:39.679Z,931.02
2019-02-08T06:22:39.671Z,931.02
2019-02-08T06:23:39.665Z,931.04
2019-02-08T06:24:39.648Z,931.02
2019-02-08T06:25:39.637Z,931.00
2019-02-08T06:26:39.626Z,931.03
2019-02-08T06:27:39.618Z,931.01
2019-02-08T06:28:39.611Z,931.02
2019-02-08T06:29:39.596Z,931.05
2019-02-08T06:30:39.583Z,931.03
2019-02-08T06:31:39.570Z,931.07
2019-02-08T06:32:39.565Z,931.05
2019-02-08T06:33:39.551Z,931.08
2019-02-08T06:34:41.241Z,931.05
2019-02-08T06:35:39.530Z,931.04
2019-02-08T06:36:39.519Z,931.00
2019-02-08T06:37:44.399Z,930.98
2019-02-08T06:38:39.500Z,931.00
2019-02-08T06:39:39.498Z,931.00
2019-02-08T06:40:39.477Z,930.97
2019-02-08T06:41:39.467Z,930.98
2019-02-08T06:42:39.472Z,930.93
2019-02-08T06:43:39.450Z,930.91
2019-02-08T06:44:39.440Z,930.90
2019-02-08T06:45:39.443Z,930.92
2019-02-08T06:46:39.415Z,930.90
2019-02-08T06:47:39.404Z,930.90
2019-02-08T06:48:39.793Z,930.88
2019-02-08T06:49:39.383Z,930.91
2019-02-08T06:50:39.372Z,930.87
2019-02-08T06:51:39.362Z,930.90
2019-02-08T06:52:39.355Z,930.91
2019-02-08T06:53:39.339Z,930.86
2019-02-08T06:54:39.331Z,930.90
2019-02-08T06:55:39.318Z,930.84
2019-02-08T06:56:39.311Z,930.79
2019-02-08T06:57:39.304Z,930.80
2019-02-08T06:58:39.289Z,930.80
2019-02-08T06:59:39.275Z,930.79
2019-02-08T07:00:39.267Z,930.81
2019-02-08T07:01:39.259Z,930.70
2019-02-08T07:02:39.243Z,930.83
2019-02-08T07:03:39.235Z,930.73
2019-02-08T07:04:39.424Z,930.66
2019-02-08T07:05:39.217Z,930.64
2019-02-08T07:06:39.201Z,930.63
2019-02-08T07:07:39.194Z,930.61
2019-02-08T07:08:39.184Z,930.68
2019-02-08T07:09:39.268Z,930.64
2019-02-08T07:10:39.160Z,930.64
2019-02-08T07:11:39.149Z,930.64
2019-02-08T07:12:39.137Z,930.63
2019-02-08T07:13:39.132Z,930.61
2019-02-08T07:14:39.126Z,930.61
2019-02-08T07:15:39.112Z,930.57
2019-02-08T07:16:39.098Z,930.57
2019-02-08T07:17:39.092Z,930.56
2019-02-08T07:18:39.077Z,930.56
2019-02-08T07:19:39.067Z,930.59
2019-02-08T07:20:39.060Z,930.54
2019-02-08T07:21:39.043Z,930.54
2019-02-08T07:22:39.035Z,930.49
2019-02-08T07:23:39.023Z,930.48
2019-02-08T07:24:39.010Z,930.47
2019-02-08T07:25:39.000Z,930.42
2019-02-08T07:26:38.990Z,930.41
2019-02-08T07:27:38.980Z,930.41
2019-02-08T07:28:38.983Z,930.45
2019-02-08T07:29:38.957Z,930.40
2019-02-08T07:30:38.954Z,930.47
2019-02-08T07:31:38.941Z,930.41
2019-02-08T07:32:38.926Z,930.39
2019-02-08T07:33:38.922Z,930.38
2019-02-08T07:34:38.906Z,930.39
2019-02-08T07:35:38.896Z,930.32
2019-02-08T07:36:38.887Z,930.34
2019-02-08T07:37:38.871Z,930.33
2019-02-08T07:38:38.859Z,930.28
2019-02-08T07:39:38.851Z,930.30
2019-02-08T07:40:38.846Z,930.31
2019-02-08T07:41:38.826Z,930.27
2019-02-08T07:42:38.818Z,930.31
2019-02-08T07:43:38.810Z,930.28
2019-02-08T07:44:38.800Z,930.22
2019-02-08T07:45:38.785Z,930.22
2019-02-08T07:46:38.773Z,930.22
2019-02-08T07:47:38.771Z,930.20
2019-02-08T07:48:38.759Z,930.19
2019-02-08T07:49:38.846Z,930.19
2019-02-08T07:50:38.734Z,930.15
2019-02-08T07:51:38.727Z,930.12
2019-02-08T07:52:38.713Z,930.13
2019-02-08T07:53:38.706Z,930.16
2019-02-08T07:54:38.692Z,930.14
2019-02-08T07:55:38.682Z,930.08
2019-02-08T07:56:38.670Z,930.11
2019-02-08T07:57:38.659Z,930.02
2019-02-08T07:58:38.657Z,930.00
2019-02-08T07:59:38.652Z,930.01
2019-02-08T08:00:38.626Z,929.99
2019-02-08T08:01:38.616Z,929.97
2019-02-08T08:02:38.608Z,930.02
2019-02-08T08:03:38.600Z,929.96
2019-02-08T08:04:38.590Z,929.93
2019-02-08T08:05:38.575Z,929.94
2019-02-08T08:06:38.572Z,929.91
2019-02-08T08:07:38.556Z,929.94
2019-02-08T08:08:38.547Z,929.86
2019-02-08T08:09:38.539Z,929.87
2019-02-08T08:10:38.520Z,929.82
2019-02-08T08:11:38.516Z,929.84
2019-02-08T08:12:38.508Z,929.79
2019-02-08T08:13:38.492Z,929.76
2019-02-08T08:14:38.480Z,929.72
2019-02-08T08:15:38.466Z,929.69
2019-02-08T08:16:38.457Z,929.72
2019-02-08T08:17:38.449Z,929.73
2019-02-08T08:18:38.444Z,929.73
2019-02-08T08:19:38.428Z,929.69
2019-02-08T08:20:38.419Z,929.71
2019-02-08T08:21:38.413Z,929.66
2019-02-08T08:22:38.395Z,929.63
2019-02-08T08:23:38.388Z,929.60
2019-02-08T08:24:38.373Z,929.60
2019-02-08T08:25:38.367Z,929.58
2019-02-08T08:26:38.357Z,929.62
2019-02-08T08:27:38.350Z,929.57
2019-02-08T08:28:38.339Z,929.56
2019-02-08T08:29:38.320Z,929.52
2019-02-08T08:30:38.309Z,929.49
2019-02-08T08:31:38.304Z,929.40
2019-02-08T08:32:38.291Z,929.42
2019-02-08T08:33:38.276Z,929.43
2019-02-08T08:34:38.275Z,929.37
2019-02-08T08:35:38.259Z,929.43
2019-02-08T08:36:38.248Z,929.37
2019-02-08T08:37:38.236Z,929.34
2019-02-08T08:38:38.226Z,929.36
2019-02-08T08:39:38.212Z,929.33
2019-02-08T08:40:38.202Z,929.28
2019-02-08T08:41:38.191Z,929.25
2019-02-08T08:42:38.181Z,929.22
2019-02-08T08:43:38.174Z,929.19
2019-02-08T08:44:38.163Z,929.19
2019-02-08T08:45:38.150Z,929.18
2019-02-08T08:46:38.141Z,929.06
2019-02-08T08:47:38.135Z,929.06
2019-02-08T08:48:38.120Z,929.11
2019-02-08T08:49:38.106Z,929.04
2019-02-08T08:50:38.448Z,929.05
2019-02-08T08:51:38.086Z,929.10
2019-02-08T08:52:38.074Z,929.12
2019-02-08T08:53:38.064Z,929.02
2019-02-08T08:54:38.055Z,929.02
2019-02-08T08:55:42.162Z,929.09
2019-02-08T08:56:38.036Z,929.06
2019-02-08T08:57:38.021Z,929.02
2019-02-08T08:58:38.012Z,929.02
2019-02-08T08:59:38.002Z,929.00
2019-02-08T09:00:37.990Z,929.02
2019-02-08T09:01:37.983Z,929.04
2019-02-08T09:02:37.968Z,928.95
2019-02-08T09:03:37.958Z,929.04
2019-02-08T09:04:37.946Z,928.93
2019-02-08T09:05:37.938Z,928.93
2019-02-08T09:06:37.927Z,928.97
2019-02-08T09:07:37.921Z,928.92
2019-02-08T09:08:37.905Z,928.95
2019-02-08T09:09:37.897Z,928.84
2019-02-08T09:10:37.886Z,928.82
2019-02-08T09:11:37.873Z,928.86
2019-02-08T09:12:37.863Z,928.78
2019-02-08T09:13:37.851Z,928.76
2019-02-08T09:14:37.840Z,928.78
2019-02-08T09:15:37.829Z,928.77
2019-02-08T09:16:37.815Z,928.76
2019-02-08T09:17:37.807Z,928.75
2019-02-08T09:18:37.799Z,928.68
2019-02-08T09:19:37.783Z,928.73
2019-02-08T09:20:39.051Z,928.73
2019-02-08T09:21:37.763Z,928.71
2019-02-08T09:22:37.759Z,928.71
2019-02-08T09:23:37.745Z,928.68
2019-02-08T09:24:37.735Z,928.68
2019-02-08T09:25:37.724Z,928.70
2019-02-08T09:26:37.711Z,928.72
2019-02-08T09:27:37.700Z,928.79
2019-02-08T09:28:37.691Z,928.82
2019-02-08T09:29:37.681Z,928.76
2019-02-08T09:30:37.666Z,928.78
2019-02-08T09:31:37.659Z,928.79
2019-02-08T09:32:37.645Z,928.75
2019-02-08T09:33:37.637Z,928.73
2019-02-08T09:34:37.625Z,928.71
2019-02-08T09:35:37.616Z,928.65
2019-02-08T09:36:37.604Z,928.66
2019-02-08T09:37:37.619Z,928.64
2019-02-08T09:38:37.584Z,928.61
2019-02-08T09:39:37.571Z,928.62
2019-02-08T09:40:37.566Z,928.63
2019-02-08T09:41:37.551Z,928.60
2019-02-08T09:42:37.545Z,928.59
2019-02-08T09:43:37.528Z,928.57
2019-02-08T09:44:37.723Z,928.57
2019-02-08T09:45:37.510Z,928.61
2019-02-08T09:46:37.501Z,928.62
2019-02-08T09:47:37.484Z,928.56
2019-02-08T09:48:37.480Z,928.56
2019-02-08T09:49:37.464Z,928.57
2019-02-08T09:50:37.456Z,928.60
2019-02-08T09:51:37.745Z,928.59
2019-02-08T09:52:37.650Z,928.61
2019-02-08T09:53:37.422Z,928.59
2019-02-08T09:54:37.408Z,928.64
2019-02-08T09:55:37.402Z,928.59
2019-02-08T09:56:37.394Z,928.59
2019-02-08T09:57:37.480Z,928.57
2019-02-08T09:58:37.370Z,928.59
2019-02-08T09:59:37.359Z,928.60
2019-02-08T10:00:37.348Z,928.57
2019-02-08T10:01:37.335Z,928.54
2019-02-08T10:02:37.328Z,928.59
2019-02-08T10:03:37.320Z,928.53
2019-02-08T10:04:37.307Z,928.51
2019-02-08T10:05:37.297Z,928.50
2019-02-08T10:06:37.287Z,928.52
2019-02-08T10:07:37.274Z,928.42
2019-02-08T10:08:37.263Z,928.38
2019-02-08T10:09:37.252Z,928.42
2019-02-08T10:10:37.244Z,928.40
2019-02-08T10:11:37.233Z,928.36
2019-02-08T10:12:37.221Z,928.39
2019-02-08T10:13:37.214Z,928.35
2019-02-08T10:14:37.197Z,928.31
2019-02-08T10:15:37.199Z,928.26
2019-02-08T10:16:37.186Z,928.27
2019-02-08T10:17:37.165Z,928.29
2019-02-08T10:18:37.157Z,928.27
2019-02-08T10:19:37.143Z,928.18
2019-02-08T10:20:37.137Z,928.23
2019-02-08T10:21:37.127Z,928.11
2019-02-08T10:22:37.113Z,928.11
2019-02-08T10:23:37.104Z,928.04
2019-02-08T10:24:37.093Z,928.12
2019-02-08T10:25:37.080Z,928.09
2019-02-08T10:26:37.069Z,928.06
2019-02-08T10:27:37.062Z,928.08
2019-02-08T10:28:37.048Z,928.10
2019-02-08T10:29:37.048Z,928.11
2019-02-08T10:30:37.033Z,928.13
2019-02-08T10:31:37.023Z,928.11
2019-02-08T10:32:37.005Z,928.10
2019-02-08T10:33:36.999Z,928.13
2019-02-08T10:34:36.985Z,928.13
2019-02-08T10:35:36.973Z,928.07
2019-02-08T10:36:36.966Z,928.15
2019-02-08T10:37:36.953Z,928.11
2019-02-08T10:38:36.940Z,928.12
2019-02-08T10:39:36.928Z,928.12
2019-02-08T10:40:36.925Z,928.08
2019-02-08T10:41:36.910Z,928.06
2019-02-08T10:42:36.897Z,928.03
2019-02-08T10:43:36.887Z,928.05
2019-02-08T10:44:36.879Z,928.02
2019-02-08T10:45:36.879Z,928.01
2019-02-08T10:46:36.855Z,928.01
2019-02-08T10:47:36.846Z,928.01
2019-02-08T10:48:36.832Z,928.00
2019-02-08T10:49:36.826Z,927.92
2019-02-08T10:50:36.816Z,927.98
2019-02-08T10:51:36.911Z,927.99
2019-02-08T10:52:36.891Z,927.95
2019-02-08T10:53:36.888Z,927.95
2019-02-08T10:54:36.774Z,927.92
2019-02-08T10:55:36.762Z,927.93
2019-02-08T10:56:36.752Z,927.95
2019-02-08T10:57:36.740Z,927.94
2019-02-08T10:58:36.728Z,927.89
2019-02-08T10:59:36.721Z,927.88
2019-02-08T11:00:36.705Z,927.90
2019-02-08T11:01:41.734Z,927.91
2019-02-08T11:02:36.686Z,927.93
2019-02-08T11:03:36.875Z,927.92
2019-02-08T11:04:36.670Z,927.95
2019-02-08T11:05:36.651Z,927.89
2019-02-08T11:06:36.642Z,927.89
2019-02-08T11:07:36.635Z,927.88
2019-02-08T11:08:36.621Z,927.87
2019-02-08T11:09:36.610Z,927.83
2019-02-08T11:10:36.599Z,927.87
2019-02-08T11:11:36.591Z,927.87
2019-02-08T11:12:36.580Z,927.85
2019-02-08T11:13:36.567Z,927.86
2019-02-08T11:14:36.558Z,927.86
2019-02-08T11:15:36.546Z,927.87
2019-02-08T11:16:36.542Z,927.85
2019-02-08T11:17:36.526Z,927.86
2019-02-08T11:18:36.515Z,927.87
2019-02-08T11:19:36.507Z,927.81
2019-02-08T11:20:36.498Z,927.85
2019-02-08T11:21:36.483Z,927.79
2019-02-08T11:22:36.475Z,927.81
2019-02-08T11:23:36.463Z,927.79
2019-02-08T11:24:36.455Z,927.75
2019-02-08T11:25:36.440Z,927.76
2019-02-08T11:26:36.433Z,927.73
2019-02-08T11:27:36.429Z,927.76
2019-02-08T11:28:36.410Z,927.77
2019-02-08T11:29:36.396Z,927.70
2019-02-08T11:30:36.389Z,927.73
2019-02-08T11:31:36.374Z,927.75
2019-02-08T11:32:43.226Z,927.75
2019-02-08T11:33:37.459Z,927.75
2019-02-08T11:34:36.349Z,927.68
2019-02-08T11:35:36.335Z,927.68
2019-02-08T11:36:36.327Z,927.68
2019-02-08T11:37:36.317Z,927.68
2019-02-08T11:38:36.299Z,927.67
2019-02-08T11:39:36.287Z,927.72
2019-02-08T11:40:36.277Z,927.71
2019-02-08T11:41:36.272Z,927.69
2019-02-08T11:42:36.262Z,927.64
2019-02-08T11:43:36.246Z,927.62
2019-02-08T11:44:36.236Z,927.60
2019-02-08T11:45:36.225Z,927.58
2019-02-08T11:46:36.210Z,927.52
2019-02-08T11:47:36.210Z,927.55
2019-02-08T11:48:36.193Z,927.58
2019-02-08T11:49:36.180Z,927.60
2019-02-08T11:50:36.169Z,927.58
2019-02-08T11:51:36.259Z,927.50
2019-02-08T11:53:36.241Z,927.57
2019-02-08T11:54:36.135Z,927.51
2019-02-08T11:55:36.115Z,927.49
2019-02-08T11:56:36.107Z,927.54
2019-02-08T11:57:36.195Z,927.54
2019-02-08T11:58:36.084Z,927.50
2019-02-08T11:59:36.078Z,927.50
2019-02-08T12:00:36.067Z,927.46
2019-02-08T12:01:36.054Z,927.47
2019-02-08T12:02:40.581Z,927.48
2019-02-08T12:03:36.029Z,927.44
2019-02-08T12:04:36.123Z,927.38
2019-02-08T12:05:36.013Z,927.36
2019-02-08T12:06:35.997Z,927.34
2019-02-08T12:07:35.990Z,927.33
2019-02-08T12:08:35.975Z,927.35
2019-02-08T12:09:35.966Z,927.32
2019-02-08T12:10:35.955Z,927.29
2019-02-08T12:11:35.951Z,927.28
2019-02-08T12:12:35.932Z,927.27
2019-02-08T12:13:35.923Z,927.32
2019-02-08T12:14:35.911Z,927.27
2019-02-08T12:15:35.904Z,927.27
2019-02-08T12:16:35.895Z,927.24
2019-02-08T12:17:35.887Z,927.24
2019-02-08T12:18:35.867Z,927.28
2019-02-08T12:19:35.859Z,927.23
2019-02-08T12:20:35.847Z,927.23
2019-02-08T12:21:35.841Z,927.26
2019-02-08T12:22:35.827Z,927.30
2019-02-08T12:23:35.815Z,927.29
2019-02-08T12:24:35.806Z,927.28
2019-02-08T12:25:35.797Z,927.27
2019-02-08T12:26:37.937Z,927.24
2019-02-08T12:27:35.771Z,927.31
2019-02-08T12:28:35.764Z,927.29
2019-02-08T12:29:35.754Z,927.29